sensor_id;sensor_type;location;lat;lon;timestamp;P1;durP1;ratioP1;P2;durP2;ratioP2
76574;SDS011;65439;50.948;6.988;2023-03-23T00:03:25;5.60;;;3.00;;
76574;SDS011;65439;50.948;6.988;2023-03-23T00:05:53;6.60;;;2.85;;
76574;SDS011;65439;50.948;6.988;2023-03-23T00:08:24;3.58;;;2.63;;
76574;SDS011;65439;50.948;6.988;2023-03-23T00:10:51;3.17;;;2.47;;
76574;SDS011;65439;50.948;6.988;2023-03-23T00:13:25;4.25;;;2.53;;
76574;SDS011;65439;50.948;6.988;2023-03-23T00:15:52;4.75;;;2.65;;
76574;SDS011;65439;50.948;6.988;2023-03-23T00:18:18;3.72;;;2.55;;
76574;SDS011;65439;50.948;6.988;2023-03-23T00:20:51;5.43;;;2.60;;
76574;SDS011;65439;50.948;6.988;2023-03-23T00:23:18;4.53;;;2.42;;
76574;SDS011;65439;50.948;6.988;2023-03-23T00:28:13;6.63;;;2.58;;
76574;SDS011;65439;50.948;6.988;2023-03-23T00:30:39;5.05;;;2.30;;
76574;SDS011;65439;50.948;6.988;2023-03-23T00:33:06;4.70;;;2.42;;
76574;SDS011;65439;50.948;6.988;2023-03-23T00:35:32;4.50;;;2.13;;
76574;SDS011;65439;50.948;6.988;2023-03-23T00:37:57;4.13;;;2.45;;
76574;SDS011;65439;50.948;6.988;2023-03-23T00:40:24;3.47;;;2.33;;
76574;SDS011;65439;50.948;6.988;2023-03-23T00:42:49;3.60;;;2.72;;
76574;SDS011;65439;50.948;6.988;2023-03-23T00:45:14;3.20;;;2.20;;
76574;SDS011;65439;50.948;6.988;2023-03-23T00:47:41;3.90;;;2.45;;
76574;SDS011;65439;50.948;6.988;2023-03-23T00:50:11;2.53;;;2.20;;
76574;SDS011;65439;50.948;6.988;2023-03-23T00:52:38;3.15;;;2.55;;
76574;SDS011;65439;50.948;6.988;2023-03-23T00:55:04;4.05;;;2.13;;
76574;SDS011;65439;50.948;6.988;2023-03-23T00:57:29;3.50;;;2.53;;
76574;SDS011;65439;50.948;6.988;2023-03-23T00:59:55;3.70;;;2.85;;
76574;SDS011;65439;50.948;6.988;2023-03-23T01:02:20;3.37;;;2.60;;
76574;SDS011;65439;50.948;6.988;2023-03-23T01:04:49;5.15;;;2.28;;
76574;SDS011;65439;50.948;6.988;2023-03-23T01:07:17;5.93;;;3.45;;
76574;SDS011;65439;50.948;6.988;2023-03-23T01:09:43;3.72;;;2.33;;
76574;SDS011;65439;50.948;6.988;2023-03-23T01:12:10;2.30;;;2.05;;
76574;SDS011;65439;50.948;6.988;2023-03-23T01:14:36;2.65;;;2.20;;
76574;SDS011;65439;50.948;6.988;2023-03-23T01:17:01;3.97;;;2.78;;
76574;SDS011;65439;50.948;6.988;2023-03-23T01:19:27;3.07;;;2.00;;
76574;SDS011;65439;50.948;6.988;2023-03-23T01:21:52;3.13;;;2.47;;
76574;SDS011;65439;50.948;6.988;2023-03-23T01:24:17;2.77;;;2.27;;
76574;SDS011;65439;50.948;6.988;2023-03-23T01:26:43;2.63;;;2.00;;
76574;SDS011;65439;50.948;6.988;2023-03-23T01:29:08;4.27;;;2.33;;
76574;SDS011;65439;50.948;6.988;2023-03-23T01:31:33;2.90;;;2.27;;
76574;SDS011;65439;50.948;6.988;2023-03-23T01:34:01;3.30;;;2.60;;
76574;SDS011;65439;50.948;6.988;2023-03-23T01:36:27;2.95;;;2.60;;
76574;SDS011;65439;50.948;6.988;2023-03-23T01:38:54;3.22;;;2.40;;
76574;SDS011;65439;50.948;6.988;2023-03-23T01:41:20;3.42;;;2.13;;
76574;SDS011;65439;50.948;6.988;2023-03-23T01:44:00;3.00;;;2.53;;
76574;SDS011;65439;50.948;6.988;2023-03-23T01:46:26;3.75;;;2.45;;
76574;SDS011;65439;50.948;6.988;2023-03-23T01:51:18;4.88;;;2.90;;
76574;SDS011;65439;50.948;6.988;2023-03-23T01:53:46;4.15;;;2.50;;
76574;SDS011;65439;50.948;6.988;2023-03-23T01:56:14;3.80;;;2.90;;
76574;SDS011;65439;50.948;6.988;2023-03-23T01:58:41;4.88;;;2.88;;
76574;SDS011;65439;50.948;6.988;2023-03-23T02:01:08;3.03;;;2.72;;
76574;SDS011;65439;50.948;6.988;2023-03-23T02:03:36;3.38;;;2.42;;
76574;SDS011;65439;50.948;6.988;2023-03-23T02:06:03;4.55;;;2.53;;
76574;SDS011;65439;50.948;6.988;2023-03-23T02:08:28;3.63;;;2.33;;
76574;SDS011;65439;50.948;6.988;2023-03-23T02:10:57;4.18;;;2.67;;
76574;SDS011;65439;50.948;6.988;2023-03-23T02:13:23;4.28;;;2.60;;
76574;SDS011;65439;50.948;6.988;2023-03-23T02:15:52;3.60;;;2.55;;
76574;SDS011;65439;50.948;6.988;2023-03-23T02:23:52;3.88;;;2.60;;
76574;SDS011;65439;50.948;6.988;2023-03-23T02:26:33;2.67;;;2.42;;
76574;SDS011;65439;50.948;6.988;2023-03-23T02:31:42;4.40;;;3.05;;
76574;SDS011;65439;50.948;6.988;2023-03-23T02:34:13;4.63;;;4.22;;
76574;SDS011;65439;50.948;6.988;2023-03-23T02:36:46;6.07;;;3.20;;
76574;SDS011;65439;50.948;6.988;2023-03-23T02:39:22;4.18;;;3.00;;
76574;SDS011;65439;50.948;6.988;2023-03-23T02:41:52;4.65;;;3.38;;
76574;SDS011;65439;50.948;6.988;2023-03-23T02:44:21;3.33;;;2.78;;
76574;SDS011;65439;50.948;6.988;2023-03-23T02:46:47;3.53;;;2.72;;
76574;SDS011;65439;50.948;6.988;2023-03-23T02:49:13;3.55;;;2.50;;
76574;SDS011;65439;50.948;6.988;2023-03-23T02:51:39;3.15;;;2.50;;
76574;SDS011;65439;50.948;6.988;2023-03-23T02:54:05;3.08;;;2.60;;
76574;SDS011;65439;50.948;6.988;2023-03-23T02:56:31;3.95;;;2.53;;
76574;SDS011;65439;50.948;6.988;2023-03-23T02:58:58;3.70;;;2.72;;
76574;SDS011;65439;50.948;6.988;2023-03-23T03:03:53;2.50;;;2.30;;
76574;SDS011;65439;50.948;6.988;2023-03-23T03:06:24;4.13;;;2.58;;
76574;SDS011;65439;50.948;6.988;2023-03-23T03:08:59;3.88;;;2.40;;
76574;SDS011;65439;50.948;6.988;2023-03-23T03:11:26;2.72;;;2.25;;
76574;SDS011;65439;50.948;6.988;2023-03-23T03:13:52;4.20;;;2.15;;
76574;SDS011;65439;50.948;6.988;2023-03-23T03:16:23;4.10;;;2.30;;
76574;SDS011;65439;50.948;6.988;2023-03-23T03:21:37;3.53;;;2.70;;
76574;SDS011;65439;50.948;6.988;2023-03-23T03:24:05;4.78;;;2.20;;
76574;SDS011;65439;50.948;6.988;2023-03-23T03:26:35;2.95;;;2.20;;
76574;SDS011;65439;50.948;6.988;2023-03-23T03:29:01;3.47;;;2.38;;
76574;SDS011;65439;50.948;6.988;2023-03-23T03:31:34;2.88;;;2.53;;
76574;SDS011;65439;50.948;6.988;2023-03-23T03:34:02;3.20;;;2.17;;
76574;SDS011;65439;50.948;6.988;2023-03-23T03:36:28;2.97;;;2.47;;
76574;SDS011;65439;50.948;6.988;2023-03-23T03:39:00;4.05;;;2.42;;
76574;SDS011;65439;50.948;6.988;2023-03-23T03:41:28;2.63;;;2.20;;
76574;SDS011;65439;50.948;6.988;2023-03-23T03:43:54;2.60;;;2.13;;
76574;SDS011;65439;50.948;6.988;2023-03-23T03:46:19;2.45;;;2.03;;
76574;SDS011;65439;50.948;6.988;2023-03-23T03:48:44;2.63;;;2.43;;
76574;SDS011;65439;50.948;6.988;2023-03-23T03:51:10;5.63;;;2.53;;
76574;SDS011;65439;50.948;6.988;2023-03-23T03:53:35;2.53;;;2.17;;
76574;SDS011;65439;50.948;6.988;2023-03-23T03:56:00;2.42;;;1.77;;
76574;SDS011;65439;50.948;6.988;2023-03-23T03:58:26;3.10;;;2.80;;
76574;SDS011;65439;50.948;6.988;2023-03-23T04:00:59;2.75;;;2.08;;
76574;SDS011;65439;50.948;6.988;2023-03-23T04:03:25;4.43;;;2.13;;
76574;SDS011;65439;50.948;6.988;2023-03-23T04:05:51;3.33;;;2.28;;
76574;SDS011;65439;50.948;6.988;2023-03-23T04:08:17;2.63;;;2.35;;
76574;SDS011;65439;50.948;6.988;2023-03-23T04:10:43;3.47;;;2.35;;
76574;SDS011;65439;50.948;6.988;2023-03-23T04:13:09;2.53;;;1.90;;
76574;SDS011;65439;50.948;6.988;2023-03-23T04:15:34;4.67;;;2.30;;
76574;SDS011;65439;50.948;6.988;2023-03-23T04:17:59;4.30;;;2.50;;
76574;SDS011;65439;50.948;6.988;2023-03-23T04:20:25;3.70;;;2.57;;
76574;SDS011;65439;50.948;6.988;2023-03-23T04:22:51;4.80;;;2.65;;
76574;SDS011;65439;50.948;6.988;2023-03-23T04:25:20;2.80;;;2.50;;
76574;SDS011;65439;50.948;6.988;2023-03-23T04:27:46;2.92;;;2.55;;
76574;SDS011;65439;50.948;6.988;2023-03-23T04:30:17;4.70;;;2.60;;
76574;SDS011;65439;50.948;6.988;2023-03-23T04:32:44;6.05;;;3.03;;
76574;SDS011;65439;50.948;6.988;2023-03-23T04:35:10;3.30;;;2.70;;
76574;SDS011;65439;50.948;6.988;2023-03-23T04:37:38;3.42;;;2.97;;
76574;SDS011;65439;50.948;6.988;2023-03-23T04:40:06;2.55;;;2.17;;
76574;SDS011;65439;50.948;6.988;2023-03-23T04:42:35;4.03;;;2.72;;
76574;SDS011;65439;50.948;6.988;2023-03-23T04:45:02;3.28;;;2.70;;
76574;SDS011;65439;50.948;6.988;2023-03-23T04:47:30;3.42;;;2.58;;
76574;SDS011;65439;50.948;6.988;2023-03-23T04:49:57;3.80;;;2.85;;
76574;SDS011;65439;50.948;6.988;2023-03-23T04:52:24;2.85;;;2.33;;
76574;SDS011;65439;50.948;6.988;2023-03-23T04:54:50;4.03;;;2.65;;
76574;SDS011;65439;50.948;6.988;2023-03-23T04:57:16;4.30;;;2.60;;
76574;SDS011;65439;50.948;6.988;2023-03-23T04:59:42;4.07;;;2.87;;
76574;SDS011;65439;50.948;6.988;2023-03-23T05:02:08;4.50;;;2.83;;
76574;SDS011;65439;50.948;6.988;2023-03-23T05:04:34;3.28;;;2.70;;
76574;SDS011;65439;50.948;6.988;2023-03-23T05:06:59;3.22;;;2.50;;
76574;SDS011;65439;50.948;6.988;2023-03-23T05:09:24;4.78;;;3.33;;
76574;SDS011;65439;50.948;6.988;2023-03-23T05:11:50;4.13;;;2.83;;
76574;SDS011;65439;50.948;6.988;2023-03-23T05:14:15;3.27;;;2.87;;
76574;SDS011;65439;50.948;6.988;2023-03-23T05:16:41;3.35;;;2.67;;
76574;SDS011;65439;50.948;6.988;2023-03-23T05:19:06;2.90;;;2.60;;
76574;SDS011;65439;50.948;6.988;2023-03-23T05:21:33;3.83;;;2.70;;
76574;SDS011;65439;50.948;6.988;2023-03-23T05:23:59;3.25;;;2.50;;
76574;SDS011;65439;50.948;6.988;2023-03-23T05:26:25;3.60;;;3.30;;
76574;SDS011;65439;50.948;6.988;2023-03-23T05:28:53;4.38;;;2.72;;
76574;SDS011;65439;50.948;6.988;2023-03-23T05:31:19;5.03;;;3.42;;
76574;SDS011;65439;50.948;6.988;2023-03-23T05:33:44;4.17;;;3.00;;
76574;SDS011;65439;50.948;6.988;2023-03-23T05:36:10;5.25;;;3.33;;
76574;SDS011;65439;50.948;6.988;2023-03-23T05:38:38;4.78;;;2.80;;
76574;SDS011;65439;50.948;6.988;2023-03-23T05:41:05;5.00;;;2.92;;
76574;SDS011;65439;50.948;6.988;2023-03-23T05:43:31;5.55;;;2.88;;
76574;SDS011;65439;50.948;6.988;2023-03-23T05:45:56;3.70;;;3.30;;
76574;SDS011;65439;50.948;6.988;2023-03-23T05:48:22;5.22;;;3.03;;
76574;SDS011;65439;50.948;6.988;2023-03-23T05:50:47;3.78;;;3.38;;
76574;SDS011;65439;50.948;6.988;2023-03-23T05:53:13;3.83;;;3.43;;
76574;SDS011;65439;50.948;6.988;2023-03-23T05:55:38;4.87;;;2.63;;
76574;SDS011;65439;50.948;6.988;2023-03-23T05:58:03;3.43;;;3.00;;
76574;SDS011;65439;50.948;6.988;2023-03-23T06:00:28;4.87;;;2.70;;
76574;SDS011;65439;50.948;6.988;2023-03-23T06:02:55;6.07;;;3.85;;
76574;SDS011;65439;50.948;6.988;2023-03-23T06:05:21;3.20;;;2.72;;
76574;SDS011;65439;50.948;6.988;2023-03-23T06:07:47;5.22;;;3.25;;
76574;SDS011;65439;50.948;6.988;2023-03-23T06:10:13;3.85;;;3.00;;
76574;SDS011;65439;50.948;6.988;2023-03-23T06:12:39;6.10;;;2.60;;
76574;SDS011;65439;50.948;6.988;2023-03-23T06:15:05;4.50;;;3.38;;
76574;SDS011;65439;50.948;6.988;2023-03-23T06:17:32;6.25;;;2.90;;
76574;SDS011;65439;50.948;6.988;2023-03-23T06:19:58;3.85;;;3.00;;
76574;SDS011;65439;50.948;6.988;2023-03-23T06:22:23;4.57;;;3.63;;
76574;SDS011;65439;50.948;6.988;2023-03-23T06:24:48;5.10;;;3.40;;
76574;SDS011;65439;50.948;6.988;2023-03-23T06:27:14;7.60;;;3.80;;
76574;SDS011;65439;50.948;6.988;2023-03-23T06:29:41;4.32;;;2.95;;
76574;SDS011;65439;50.948;6.988;2023-03-23T06:32:06;5.32;;;3.25;;
76574;SDS011;65439;50.948;6.988;2023-03-23T06:34:32;5.00;;;2.72;;
76574;SDS011;65439;50.948;6.988;2023-03-23T06:36:57;6.90;;;2.90;;
76574;SDS011;65439;50.948;6.988;2023-03-23T06:39:23;7.32;;;3.03;;
76574;SDS011;65439;50.948;6.988;2023-03-23T06:41:48;4.93;;;3.00;;
76574;SDS011;65439;50.948;6.988;2023-03-23T06:44:14;4.15;;;3.35;;
76574;SDS011;65439;50.948;6.988;2023-03-23T06:46:40;5.70;;;3.40;;
76574;SDS011;65439;50.948;6.988;2023-03-23T06:49:06;5.85;;;2.97;;
76574;SDS011;65439;50.948;6.988;2023-03-23T06:51:32;5.70;;;3.08;;
76574;SDS011;65439;50.948;6.988;2023-03-23T06:53:57;4.47;;;3.00;;
76574;SDS011;65439;50.948;6.988;2023-03-23T06:56:23;3.78;;;3.38;;
76574;SDS011;65439;50.948;6.988;2023-03-23T06:58:48;4.18;;;2.75;;
76574;SDS011;65439;50.948;6.988;2023-03-23T07:01:14;4.10;;;2.90;;
76574;SDS011;65439;50.948;6.988;2023-03-23T07:03:40;4.05;;;3.15;;
76574;SDS011;65439;50.948;6.988;2023-03-23T07:06:06;3.75;;;2.40;;
76574;SDS011;65439;50.948;6.988;2023-03-23T07:08:32;5.03;;;2.80;;
76574;SDS011;65439;50.948;6.988;2023-03-23T07:10:57;7.47;;;3.20;;
76574;SDS011;65439;50.948;6.988;2023-03-23T07:13:23;6.17;;;4.17;;
76574;SDS011;65439;50.948;6.988;2023-03-23T07:15:48;4.53;;;3.10;;
76574;SDS011;65439;50.948;6.988;2023-03-23T07:20:40;4.93;;;2.57;;
76574;SDS011;65439;50.948;6.988;2023-03-23T07:23:06;5.57;;;2.90;;
76574;SDS011;65439;50.948;6.988;2023-03-23T07:25:32;3.75;;;2.20;;
76574;SDS011;65439;50.948;6.988;2023-03-23T07:27:58;3.92;;;2.40;;
76574;SDS011;65439;50.948;6.988;2023-03-23T07:30:27;2.92;;;2.20;;
76574;SDS011;65439;50.948;6.988;2023-03-23T07:32:54;3.92;;;2.30;;
76574;SDS011;65439;50.948;6.988;2023-03-23T07:35:19;3.70;;;2.00;;
76574;SDS011;65439;50.948;6.988;2023-03-23T07:37:45;3.83;;;2.95;;
76574;SDS011;65439;50.948;6.988;2023-03-23T07:40:13;3.42;;;2.10;;
76574;SDS011;65439;50.948;6.988;2023-03-23T07:42:43;4.93;;;2.72;;
76574;SDS011;65439;50.948;6.988;2023-03-23T07:45:12;5.10;;;2.50;;
76574;SDS011;65439;50.948;6.988;2023-03-23T07:47:38;3.38;;;2.10;;
76574;SDS011;65439;50.948;6.988;2023-03-23T07:50:04;3.70;;;2.10;;
76574;SDS011;65439;50.948;6.988;2023-03-23T07:54:56;4.00;;;2.53;;
76574;SDS011;65439;50.948;6.988;2023-03-23T07:57:21;4.00;;;2.25;;
76574;SDS011;65439;50.948;6.988;2023-03-23T07:59:47;3.25;;;2.03;;
76574;SDS011;65439;50.948;6.988;2023-03-23T08:02:12;3.97;;;2.40;;
76574;SDS011;65439;50.948;6.988;2023-03-23T08:04:38;4.28;;;2.30;;
76574;SDS011;65439;50.948;6.988;2023-03-23T08:07:04;3.60;;;2.40;;
76574;SDS011;65439;50.948;6.988;2023-03-23T08:09:30;4.07;;;2.40;;
76574;SDS011;65439;50.948;6.988;2023-03-23T08:11:55;4.38;;;2.47;;
76574;SDS011;65439;50.948;6.988;2023-03-23T08:14:20;4.57;;;2.45;;
76574;SDS011;65439;50.948;6.988;2023-03-23T08:16:46;4.43;;;2.05;;
76574;SDS011;65439;50.948;6.988;2023-03-23T08:19:11;2.43;;;1.80;;
76574;SDS011;65439;50.948;6.988;2023-03-23T08:21:37;4.07;;;2.47;;
76574;SDS011;65439;50.948;6.988;2023-03-23T08:24:02;3.22;;;2.53;;
76574;SDS011;65439;50.948;6.988;2023-03-23T08:26:28;5.93;;;2.70;;
76574;SDS011;65439;50.948;6.988;2023-03-23T08:28:53;5.47;;;2.10;;
76574;SDS011;65439;50.948;6.988;2023-03-23T08:31:18;4.30;;;1.92;;
76574;SDS011;65439;50.948;6.988;2023-03-23T08:33:44;4.25;;;2.15;;
76574;SDS011;65439;50.948;6.988;2023-03-23T08:36:10;4.80;;;2.13;;
76574;SDS011;65439;50.948;6.988;2023-03-23T08:38:35;4.20;;;2.25;;
76574;SDS011;65439;50.948;6.988;2023-03-23T08:41:02;3.38;;;1.90;;
76574;SDS011;65439;50.948;6.988;2023-03-23T08:43:29;6.45;;;2.42;;
76574;SDS011;65439;50.948;6.988;2023-03-23T08:45:55;2.80;;;2.00;;
76574;SDS011;65439;50.948;6.988;2023-03-23T08:48:21;4.45;;;2.20;;
76574;SDS011;65439;50.948;6.988;2023-03-23T08:50:48;3.58;;;2.03;;
76574;SDS011;65439;50.948;6.988;2023-03-23T08:53:14;4.55;;;2.45;;
76574;SDS011;65439;50.948;6.988;2023-03-23T08:55:39;6.03;;;2.03;;
76574;SDS011;65439;50.948;6.988;2023-03-23T08:58:05;4.63;;;2.05;;
76574;SDS011;65439;50.948;6.988;2023-03-23T09:00:34;9.10;;;2.85;;
76574;SDS011;65439;50.948;6.988;2023-03-23T09:02:59;4.83;;;2.20;;
76574;SDS011;65439;50.948;6.988;2023-03-23T09:05:26;5.72;;;2.33;;
76574;SDS011;65439;50.948;6.988;2023-03-23T09:07:52;5.75;;;3.20;;
76574;SDS011;65439;50.948;6.988;2023-03-23T09:10:19;6.30;;;2.67;;
76574;SDS011;65439;50.948;6.988;2023-03-23T09:12:45;6.20;;;2.80;;
76574;SDS011;65439;50.948;6.988;2023-03-23T09:17:38;7.32;;;1.85;;
76574;SDS011;65439;50.948;6.988;2023-03-23T09:20:05;7.57;;;2.60;;
76574;SDS011;65439;50.948;6.988;2023-03-23T09:22:38;3.45;;;2.10;;
76574;SDS011;65439;50.948;6.988;2023-03-23T09:25:05;3.38;;;2.08;;
76574;SDS011;65439;50.948;6.988;2023-03-23T09:27:32;4.80;;;2.25;;
76574;SDS011;65439;50.948;6.988;2023-03-23T09:29:57;6.60;;;3.28;;
76574;SDS011;65439;50.948;6.988;2023-03-23T09:32:23;4.15;;;2.67;;
76574;SDS011;65439;50.948;6.988;2023-03-23T09:34:49;7.00;;;2.38;;
76574;SDS011;65439;50.948;6.988;2023-03-23T09:37:14;4.55;;;2.42;;
76574;SDS011;65439;50.948;6.988;2023-03-23T09:39:40;4.88;;;2.30;;
76574;SDS011;65439;50.948;6.988;2023-03-23T09:42:16;4.30;;;2.03;;
76574;SDS011;65439;50.948;6.988;2023-03-23T09:50:09;6.88;;;2.20;;
76574;SDS011;65439;50.948;6.988;2023-03-23T09:52:45;8.68;;;2.58;;
76574;SDS011;65439;50.948;6.988;2023-03-23T09:55:14;5.15;;;2.78;;
76574;SDS011;65439;50.948;6.988;2023-03-23T10:05:51;5.78;;;1.90;;
76574;SDS011;65439;50.948;6.988;2023-03-23T10:08:18;5.60;;;2.30;;
76574;SDS011;65439;50.948;6.988;2023-03-23T10:15:57;7.20;;;2.42;;
76574;SDS011;65439;50.948;6.988;2023-03-23T10:20:53;3.60;;;2.13;;
76574;SDS011;65439;50.948;6.988;2023-03-23T10:23:36;5.03;;;2.17;;
76574;SDS011;65439;50.948;6.988;2023-03-23T10:26:13;2.40;;;1.75;;
76574;SDS011;65439;50.948;6.988;2023-03-23T10:28:48;4.18;;;1.80;;
76574;SDS011;65439;50.948;6.988;2023-03-23T10:31:32;3.63;;;2.13;;
76574;SDS011;65439;50.948;6.988;2023-03-23T10:34:02;5.40;;;2.58;;
76574;SDS011;65439;50.948;6.988;2023-03-23T10:39:23;2.83;;;1.67;;
76574;SDS011;65439;50.948;6.988;2023-03-23T10:41:49;2.85;;;1.77;;
76574;SDS011;65439;50.948;6.988;2023-03-23T10:49:26;2.30;;;1.83;;
76574;SDS011;65439;50.948;6.988;2023-03-23T10:54:37;2.65;;;1.70;;
76574;SDS011;65439;50.948;6.988;2023-03-23T10:57:23;2.33;;;2.13;;
76574;SDS011;65439;50.948;6.988;2023-03-23T11:00:00;1.73;;;1.55;;
76574;SDS011;65439;50.948;6.988;2023-03-23T11:05:42;2.90;;;1.80;;
76574;SDS011;65439;50.948;6.988;2023-03-23T11:08:13;4.32;;;1.92;;
76574;SDS011;65439;50.948;6.988;2023-03-23T11:11:08;1.95;;;1.45;;
76574;SDS011;65439;50.948;6.988;2023-03-23T11:13:33;2.13;;;1.65;;
76574;SDS011;65439;50.948;6.988;2023-03-23T11:15:58;1.88;;;1.65;;
76574;SDS011;65439;50.948;6.988;2023-03-23T11:18:35;4.30;;;1.77;;
76574;SDS011;65439;50.948;6.988;2023-03-23T11:21:01;5.72;;;2.05;;
76574;SDS011;65439;50.948;6.988;2023-03-23T11:23:29;5.88;;;2.10;;
76574;SDS011;65439;50.948;6.988;2023-03-23T11:28:38;3.30;;;1.80;;
76574;SDS011;65439;50.948;6.988;2023-03-23T11:31:10;4.47;;;1.98;;
76574;SDS011;65439;50.948;6.988;2023-03-23T11:33:37;2.28;;;2.08;;
76574;SDS011;65439;50.948;6.988;2023-03-23T11:36:12;2.10;;;1.27;;
76574;SDS011;65439;50.948;6.988;2023-03-23T11:38:37;2.83;;;1.90;;
76574;SDS011;65439;50.948;6.988;2023-03-23T11:41:08;2.05;;;1.58;;
76574;SDS011;65439;50.948;6.988;2023-03-23T11:43:38;4.00;;;1.92;;
76574;SDS011;65439;50.948;6.988;2023-03-23T11:46:14;2.80;;;2.10;;
76574;SDS011;65439;50.948;6.988;2023-03-23T11:48:50;2.22;;;1.67;;
76574;SDS011;65439;50.948;6.988;2023-03-23T11:51:24;3.80;;;1.98;;
76574;SDS011;65439;50.948;6.988;2023-03-23T11:56:48;4.03;;;2.42;;
76574;SDS011;65439;50.948;6.988;2023-03-23T11:59:16;3.60;;;1.45;;
76574;SDS011;65439;50.948;6.988;2023-03-23T12:06:58;2.30;;;1.30;;
76574;SDS011;65439;50.948;6.988;2023-03-23T12:09:45;3.38;;;1.40;;
76574;SDS011;65439;50.948;6.988;2023-03-23T12:15:21;3.95;;;1.50;;
76574;SDS011;65439;50.948;6.988;2023-03-23T12:20:28;3.72;;;1.55;;
76574;SDS011;65439;50.948;6.988;2023-03-23T12:23:00;3.05;;;1.55;;
76574;SDS011;65439;50.948;6.988;2023-03-23T12:25:52;3.80;;;1.60;;
76574;SDS011;65439;50.948;6.988;2023-03-23T12:31:32;6.00;;;1.65;;
76574;SDS011;65439;50.948;6.988;2023-03-23T12:34:30;3.97;;;2.05;;
76574;SDS011;65439;50.948;6.988;2023-03-23T12:40:01;1.75;;;1.30;;
76574;SDS011;65439;50.948;6.988;2023-03-23T12:48:25;10.15;;;2.47;;
76574;SDS011;65439;50.948;6.988;2023-03-23T12:51:13;2.45;;;2.03;;
76574;SDS011;65439;50.948;6.988;2023-03-23T12:54:05;4.13;;;2.08;;
76574;SDS011;65439;50.948;6.988;2023-03-23T12:56:39;6.88;;;2.83;;
76574;SDS011;65439;50.948;6.988;2023-03-23T12:59:44;6.03;;;2.67;;
76574;SDS011;65439;50.948;6.988;2023-03-23T13:02:35;3.95;;;2.30;;
76574;SDS011;65439;50.948;6.988;2023-03-23T13:05:14;5.82;;;2.55;;
76574;SDS011;65439;50.948;6.988;2023-03-23T13:07:53;4.18;;;2.13;;
76574;SDS011;65439;50.948;6.988;2023-03-23T13:10:22;4.78;;;2.83;;
76574;SDS011;65439;50.948;6.988;2023-03-23T13:12:51;10.07;;;2.28;;
76574;SDS011;65439;50.948;6.988;2023-03-23T13:17:55;4.45;;;2.10;;
76574;SDS011;65439;50.948;6.988;2023-03-23T13:28:21;3.10;;;1.95;;
76574;SDS011;65439;50.948;6.988;2023-03-23T13:31:24;9.60;;;2.33;;
76574;SDS011;65439;50.948;6.988;2023-03-23T13:33:46;6.03;;;2.53;;
76574;SDS011;65439;50.948;6.988;2023-03-23T13:36:25;5.13;;;2.35;;
76574;SDS011;65439;50.948;6.988;2023-03-23T13:38:52;5.10;;;2.22;;
76574;SDS011;65439;50.948;6.988;2023-03-23T13:41:18;6.53;;;2.20;;
76574;SDS011;65439;50.948;6.988;2023-03-23T13:43:46;3.70;;;1.70;;
76574;SDS011;65439;50.948;6.988;2023-03-23T13:48:44;6.18;;;2.22;;
76574;SDS011;65439;50.948;6.988;2023-03-23T13:53:50;5.18;;;2.20;;
76574;SDS011;65439;50.948;6.988;2023-03-23T13:56:36;5.53;;;2.35;;
76574;SDS011;65439;50.948;6.988;2023-03-23T13:59:16;2.30;;;1.90;;
76574;SDS011;65439;50.948;6.988;2023-03-23T14:01:56;3.75;;;2.08;;
76574;SDS011;65439;50.948;6.988;2023-03-23T14:04:41;5.18;;;2.10;;
76574;SDS011;65439;50.948;6.988;2023-03-23T14:07:10;4.78;;;2.42;;
76574;SDS011;65439;50.948;6.988;2023-03-23T14:09:40;4.35;;;2.30;;
76574;SDS011;65439;50.948;6.988;2023-03-23T14:12:23;3.05;;;2.10;;
76574;SDS011;65439;50.948;6.988;2023-03-23T14:14:55;3.17;;;1.90;;
76574;SDS011;65439;50.948;6.988;2023-03-23T14:17:26;4.18;;;2.10;;
76574;SDS011;65439;50.948;6.988;2023-03-23T14:19:54;5.25;;;2.75;;
76574;SDS011;65439;50.948;6.988;2023-03-23T14:22:24;7.38;;;2.40;;
76574;SDS011;65439;50.948;6.988;2023-03-23T14:25:01;5.03;;;2.10;;
76574;SDS011;65439;50.948;6.988;2023-03-23T14:27:34;7.10;;;2.70;;
76574;SDS011;65439;50.948;6.988;2023-03-23T14:30:00;7.00;;;2.83;;
76574;SDS011;65439;50.948;6.988;2023-03-23T14:32:28;5.35;;;2.20;;
76574;SDS011;65439;50.948;6.988;2023-03-23T14:34:56;2.92;;;2.13;;
76574;SDS011;65439;50.948;6.988;2023-03-23T14:37:22;5.30;;;2.03;;
76574;SDS011;65439;50.948;6.988;2023-03-23T14:39:48;4.88;;;2.30;;
76574;SDS011;65439;50.948;6.988;2023-03-23T14:42:18;4.40;;;1.90;;
76574;SDS011;65439;50.948;6.988;2023-03-23T14:44:49;4.60;;;2.58;;
76574;SDS011;65439;50.948;6.988;2023-03-23T14:47:22;3.35;;;1.90;;
76574;SDS011;65439;50.948;6.988;2023-03-23T14:49:54;2.88;;;2.13;;
76574;SDS011;65439;50.948;6.988;2023-03-23T14:52:21;3.85;;;2.28;;
76574;SDS011;65439;50.948;6.988;2023-03-23T14:54:48;4.22;;;2.42;;
76574;SDS011;65439;50.948;6.988;2023-03-23T14:57:15;4.10;;;2.00;;
76574;SDS011;65439;50.948;6.988;2023-03-23T14:59:41;4.30;;;2.28;;
76574;SDS011;65439;50.948;6.988;2023-03-23T15:02:18;5.00;;;2.33;;
76574;SDS011;65439;50.948;6.988;2023-03-23T15:04:48;5.78;;;2.15;;
76574;SDS011;65439;50.948;6.988;2023-03-23T15:07:17;3.78;;;2.10;;
76574;SDS011;65439;50.948;6.988;2023-03-23T15:09:43;3.72;;;2.25;;
76574;SDS011;65439;50.948;6.988;2023-03-23T15:12:16;5.15;;;1.92;;
76574;SDS011;65439;50.948;6.988;2023-03-23T15:14:46;3.10;;;2.10;;
76574;SDS011;65439;50.948;6.988;2023-03-23T15:17:23;5.18;;;2.40;;
76574;SDS011;65439;50.948;6.988;2023-03-23T15:19:50;2.88;;;2.47;;
76574;SDS011;65439;50.948;6.988;2023-03-23T15:24:51;2.70;;;2.30;;
76574;SDS011;65439;50.948;6.988;2023-03-23T15:27:31;4.90;;;2.25;;
76574;SDS011;65439;50.948;6.988;2023-03-23T15:29:59;5.53;;;2.17;;
76574;SDS011;65439;50.948;6.988;2023-03-23T15:32:40;4.05;;;2.55;;
76574;SDS011;65439;50.948;6.988;2023-03-23T15:35:14;2.72;;;2.20;;
76574;SDS011;65439;50.948;6.988;2023-03-23T15:37:45;6.22;;;2.30;;
76574;SDS011;65439;50.948;6.988;2023-03-23T15:40:16;5.00;;;2.20;;
76574;SDS011;65439;50.948;6.988;2023-03-23T15:42:43;4.40;;;2.58;;
76574;SDS011;65439;50.948;6.988;2023-03-23T15:52:36;5.63;;;2.60;;
76574;SDS011;65439;50.948;6.988;2023-03-23T15:55:01;4.27;;;2.40;;
76574;SDS011;65439;50.948;6.988;2023-03-23T15:57:27;4.47;;;1.70;;
76574;SDS011;65439;50.948;6.988;2023-03-23T15:59:52;2.73;;;2.00;;
76574;SDS011;65439;50.948;6.988;2023-03-23T16:02:21;3.85;;;1.95;;
76574;SDS011;65439;50.948;6.988;2023-03-23T16:04:48;5.95;;;2.58;;
76574;SDS011;65439;50.948;6.988;2023-03-23T16:07:22;3.97;;;2.20;;
76574;SDS011;65439;50.948;6.988;2023-03-23T16:09:47;6.60;;;2.22;;
76574;SDS011;65439;50.948;6.988;2023-03-23T16:12:13;5.05;;;2.15;;
76574;SDS011;65439;50.948;6.988;2023-03-23T16:14:39;4.45;;;2.72;;
76574;SDS011;65439;50.948;6.988;2023-03-23T16:17:04;7.18;;;2.40;;
76574;SDS011;65439;50.948;6.988;2023-03-23T16:19:30;5.07;;;2.42;;
76574;SDS011;65439;50.948;6.988;2023-03-23T16:21:55;3.97;;;2.60;;
76574;SDS011;65439;50.948;6.988;2023-03-23T16:24:21;4.50;;;2.42;;
76574;SDS011;65439;50.948;6.988;2023-03-23T16:26:46;5.77;;;2.47;;
76574;SDS011;65439;50.948;6.988;2023-03-23T16:29:12;4.10;;;2.40;;
76574;SDS011;65439;50.948;6.988;2023-03-23T16:31:39;3.33;;;2.38;;
76574;SDS011;65439;50.948;6.988;2023-03-23T16:34:04;5.55;;;3.08;;
76574;SDS011;65439;50.948;6.988;2023-03-23T16:36:30;4.93;;;2.35;;
76574;SDS011;65439;50.948;6.988;2023-03-23T16:38:55;4.07;;;2.42;;
76574;SDS011;65439;50.948;6.988;2023-03-23T16:41:20;7.37;;;3.17;;
76574;SDS011;65439;50.948;6.988;2023-03-23T16:43:46;6.90;;;2.50;;
76574;SDS011;65439;50.948;6.988;2023-03-23T16:46:11;5.80;;;2.00;;
76574;SDS011;65439;50.948;6.988;2023-03-23T16:48:37;3.65;;;2.17;;
76574;SDS011;65439;50.948;6.988;2023-03-23T16:51:03;5.07;;;2.63;;
76574;SDS011;65439;50.948;6.988;2023-03-23T16:53:28;7.43;;;3.00;;